Horse Creek, Wyoming
Current Conditions -  °F | °C
As of 3:56 AM on Monday 22 Dec 2014 (Local Time) from KFEW Reporting Station
Scattered Clouds Scattered Clouds  
Wind Chill: 13°   Ceiling: Unl
Heat Index: 24°   Visibility: 10mi
Dew Point: 19°   Wind: 13mph
Humidity: 81%   Direction: 310°NW
Pressure: 29.66"   Gusts: NA
Location:  41.41°N, 105.18°W
Report Text: KFEW 221056Z AUTO 31011KT 10SM SCT110 M04/M07 A2966 RMK AO2 SLP054 T10421070 $
Loading
Personal Weather Stations






























Interactive Weather Map New forecast layout! Learn more

10-Day Weather Forecast

Advertisements
Track Severe Weather on mobile